Time;durP1;ratioP1;P1;durP2;ratioP2;P2;SDS_P1;SDS_P2;PMS_P1;PMS_P2;Temp;Humidity;BMP_temperature;BMP_pressure;BME280_temperature;BME280_humidity;BME280_pressure;Samples;Min_cycle;Max_cycle;Signal;HPM_P1;HPM_P2
2022/07/27 00:01:17;;;;;;;;;0.00;0.00;;;;;17.98;59.36;100153.88;5096258;28;8854;-62
2022/07/27 00:03:45;;;;;;;;;0.00;0.00;;;;;17.97;59.14;100154.03;5096365;28;8830;-62
2022/07/27 00:06:13;;;;;;;;;0.00;0.00;;;;;17.94;59.11;100160.63;5106185;28;8885;-63
2022/07/27 00:08:41;;;;;;;;;0.40;0.40;;;;;17.92;59.56;100145.63;5116975;28;8940;-62
2022/07/27 00:11:10;;;;;;;;;0.00;0.00;;;;;17.90;59.43;100145.78;5116364;28;8831;-61
2022/07/27 00:13:38;;;;;;;;;0.00;0.00;;;;;17.87;59.22;100146.13;5116280;28;8962;-62
2022/07/27 00:16:05;;;;;;;;;0.00;0.00;;;;;17.84;59.23;100143.72;5116713;28;8828;-61
2022/07/27 00:18:33;;;;;;;;;1.00;1.00;;;;;17.79;58.88;100132.63;5116638;28;8909;-62
2022/07/27 00:21:01;;;;;;;;;0.00;0.00;;;;;17.76;59.89;100140.19;5116535;28;8868;-62
2022/07/27 00:23:29;;;;;;;;;0.00;0.00;;;;;17.71;59.55;100140.66;5116617;28;8808;-61
2022/07/27 00:25:57;;;;;;;;;1.20;0.20;;;;;17.68;59.53;100146.38;5116840;28;8987;-61
2022/07/27 00:28:25;;;;;;;;;0.20;0.20;;;;;17.62;59.25;100149.69;5108693;28;8842;-61
2022/07/27 00:30:52;;;;;;;;;0.00;0.00;;;;;17.55;59.32;100156.72;5096664;28;8915;-62
2022/07/27 00:33:20;;;;;;;;;0.00;0.00;;;;;17.45;59.71;100153.31;5096350;28;8976;-62
2022/07/27 00:35:48;;;;;;;;;0.00;0.00;;;;;17.39;59.98;100159.34;5096083;28;8968;-63
2022/07/27 00:38:16;;;;;;;;;0.00;0.00;;;;;17.35;60.01;100157.97;5096518;28;8845;-61
2022/07/27 00:40:44;;;;;;;;;0.00;0.00;;;;;17.33;59.57;100156.41;5096014;28;8822;-62
2022/07/27 00:43:12;;;;;;;;;0.00;0.00;;;;;17.29;59.55;100153.22;5095963;28;8823;-62
2022/07/27 00:45:39;;;;;;;;;0.00;0.00;;;;;17.27;60.50;100155.22;5095990;28;8822;-62
2022/07/27 00:48:07;;;;;;;;;0.00;0.00;;;;;17.23;59.95;100153.84;5096424;28;8826;-62
2022/07/27 00:50:35;;;;;;;;;0.00;0.00;;;;;17.19;60.08;100148.94;5096054;28;9550;-63
2022/07/27 00:53:04;;;;;;;;;0.00;0.00;;;;;17.14;60.28;100149.41;5095798;28;8826;-62
2022/07/27 00:55:32;;;;;;;;;0.00;0.00;;;;;17.08;60.34;100150.03;5096308;28;8850;-62
2022/07/27 00:58:02;;;;;;;;;0.00;0.00;;;;;17.03;60.16;100147.00;5099075;28;8946;-64
2022/07/27 01:00:30;;;;;;;;;0.00;0.00;;;;;16.99;60.90;100150.13;5115999;28;8856;-62
2022/07/27 01:02:57;;;;;;;;;0.20;0.20;;;;;16.93;60.82;100148.91;5116173;28;8859;-63
2022/07/27 01:05:28;;;;;;;;;0.40;0.20;;;;;16.88;60.18;100147.72;5116182;28;8905;-61
2022/07/27 01:08:06;;;;;;;;;0.00;0.00;;;;;16.84;60.77;100146.31;5116015;28;8844;-61
2022/07/27 01:10:34;;;;;;;;;0.00;0.00;;;;;16.81;60.37;100150.19;5117548;28;9599;-62
2022/07/27 01:13:01;;;;;;;;;0.00;0.00;;;;;16.78;60.98;100147.78;5119813;28;8839;-62
2022/07/27 01:15:30;;;;;;;;;0.00;0.00;;;;;16.77;60.68;100147.94;5120066;28;8819;-63
2022/07/27 01:18:03;;;;;;;;;0.00;0.00;;;;;16.76;60.66;100149.81;5120151;28;8920;-62
2022/07/27 01:20:32;;;;;;;;;0.00;0.00;;;;;16.77;60.51;100139.88;5119844;28;8836;-61
2022/07/27 01:23:00;;;;;;;;;0.60;0.60;;;;;16.76;60.21;100140.88;5119921;28;8819;-61
2022/07/27 01:25:28;;;;;;;;;1.00;1.00;;;;;16.76;60.40;100144.44;5119412;28;8908;-61
2022/07/27 01:27:56;;;;;;;;;0.00;0.00;;;;;16.78;60.07;100150.50;5113657;28;8911;-63
2022/07/27 01:30:28;;;;;;;;;0.20;0.20;;;;;16.77;60.72;100143.41;5099317;28;8838;-62
2022/07/27 01:32:56;;;;;;;;;0.00;0.00;;;;;16.77;60.31;100142.56;5099167;28;8934;-62
2022/07/27 01:35:23;;;;;;;;;0.00;0.00;;;;;16.75;60.61;100139.19;5118112;28;8823;-61
2022/07/27 01:37:51;;;;;;;;;0.00;0.00;;;;;16.74;60.68;100140.19;5119612;28;8954;-62
2022/07/27 01:40:19;;;;;;;;;0.00;0.00;;;;;16.72;60.35;100140.34;5118988;28;8843;-62
2022/07/27 01:42:47;;;;;;;;;0.00;0.00;;;;;16.72;60.14;100143.03;5119604;28;8856;-64
2022/07/27 01:45:14;;;;;;;;;0.40;0.40;;;;;16.72;60.33;100137.66;5119356;28;8831;-61
2022/07/27 01:47:43;;;;;;;;;0.00;0.00;;;;;16.72;60.60;100139.53;5119431;28;8854;-62
2022/07/27 01:50:11;;;;;;;;;0.40;0.40;;;;;16.70;60.33;100136.97;5119060;28;8954;-62
2022/07/27 01:52:38;;;;;;;;;0.80;0.20;;;;;16.68;60.25;100130.91;5119064;28;8973;-60
2022/07/27 01:55:06;;;;;;;;;0.20;0.00;;;;;16.67;60.74;100131.94;5119284;28;8840;-62
2022/07/27 01:57:34;;;;;;;;;0.00;0.00;;;;;16.66;60.73;100142.81;5118917;28;8839;-62
2022/07/27 02:00:02;;;;;;;;;1.00;0.50;;;;;16.64;60.61;100134.91;5118811;28;8978;-61
2022/07/27 02:02:29;;;;;;;;;0.00;0.00;;;;;16.64;60.82;100142.16;5118476;28;8866;-65
2022/07/27 02:04:57;;;;;;;;;0.00;0.00;;;;;16.63;60.42;100135.91;5101056;28;8822;-62
2022/07/27 02:07:25;;;;;;;;;0.00;0.00;;;;;16.63;60.36;100141.28;5097597;28;8868;-62
2022/07/27 02:09:52;;;;;;;;;0.40;0.40;;;;;16.62;60.88;100142.28;5097753;28;8944;-61
2022/07/27 02:12:34;;;;;;;;;1.00;1.00;;;;;16.62;60.37;100142.28;5101097;28;8978;-61
2022/07/27 02:15:03;;;;;;;;;0.00;0.00;;;;;16.63;61.02;100132.41;5118397;28;8820;-62
2022/07/27 02:17:32;;;;;;;;;0.40;0.40;;;;;16.63;60.75;100138.59;5118695;28;8820;-62
2022/07/27 02:20:01;;;;;;;;;0.00;0.00;;;;;16.66;60.56;100137.44;5118948;28;8859;-62
2022/07/27 02:22:29;;;;;;;;;0.60;0.00;;;;;16.68;60.40;100141.69;5117015;28;8951;-61
2022/07/27 02:24:58;;;;;;;;;1.00;1.00;;;;;16.69;60.18;100137.13;5116874;28;8950;-61
2022/07/27 02:27:25;;;;;;;;;0.00;0.00;;;;;16.66;60.31;100143.69;5118654;28;8838;-61
2022/07/27 02:29:53;;;;;;;;;1.00;0.00;;;;;16.62;60.67;100138.78;5118806;28;8852;-61
2022/07/27 02:32:21;;;;;;;;;0.80;0.40;;;;;16.62;60.26;100139.59;5123007;27;8829;-61
2022/07/27 02:34:49;;;;;;;;;0.00;0.00;;;;;16.59;60.29;100142.63;5123052;27;8804;-61
2022/07/27 02:37:17;;;;;;;;;0.40;0.40;;;;;16.54;60.64;100139.53;5118163;28;8892;-61
2022/07/27 02:39:44;;;;;;;;;1.00;1.00;;;;;16.51;61.02;100139.00;5118423;28;8816;-62
2022/07/27 02:42:12;;;;;;;;;1.00;1.00;;;;;16.49;60.80;100146.38;5118314;28;8836;-61
2022/07/27 02:44:40;;;;;;;;;0.00;0.00;;;;;16.47;61.05;100143.84;5117929;28;8850;-61
2022/07/27 02:47:08;;;;;;;;;0.00;0.00;;;;;16.48;60.98;100148.22;5118190;28;8966;-61
2022/07/27 02:49:36;;;;;;;;;3.00;1.00;;;;;16.49;60.96;100141.84;5117756;28;9009;-62
2022/07/27 02:52:03;;;;;;;;;0.00;0.00;;;;;16.50;60.37;100140.81;5117349;28;8969;-62
2022/07/27 02:54:31;;;;;;;;;0.60;0.00;;;;;16.50;60.50;100151.59;5116840;28;8973;-61
2022/07/27 02:56:59;;;;;;;;;0.00;0.00;;;;;16.48;60.87;100142.84;5117546;28;8815;-61
2022/07/27 02:59:27;;;;;;;;;0.00;0.00;;;;;16.43;60.61;100147.00;5117444;28;8964;-61
2022/07/27 03:01:54;;;;;;;;;0.00;0.00;;;;;16.35;60.83;100147.72;5117658;28;8828;-62
2022/07/27 03:04:23;;;;;;;;;0.00;0.00;;;;;16.24;60.84;100142.56;5131323;27;8822;-63
2022/07/27 03:06:51;;;;;;;;;0.00;0.00;;;;;16.16;61.67;100146.19;5137131;27;8821;-62
2022/07/27 03:09:19;;;;;;;;;0.00;0.00;;;;;16.06;61.67;100146.25;5137107;27;8965;-61
2022/07/27 03:11:59;;;;;;;;;0.00;0.00;;;;;15.97;61.79;100155.22;5136891;27;8864;-61
2022/07/27 03:14:27;;;;;;;;;0.25;0.00;;;;;15.88;61.81;100149.91;5137085;27;8818;-62
2022/07/27 03:16:55;;;;;;;;;1.00;1.00;;;;;15.81;62.51;100151.50;5136793;27;8826;-62
2022/07/27 03:19:23;;;;;;;;;0.00;0.00;;;;;15.74;62.11;100153.09;5137285;27;8932;-61
2022/07/27 03:21:56;;;;;;;;;0.25;0.25;;;;;15.68;62.14;100157.22;5138144;27;8830;-62
2022/07/27 03:24:24;;;;;;;;;0.00;0.00;;;;;15.61;62.74;100156.13;5138280;27;9023;-61
2022/07/27 03:26:51;;;;;;;;;0.00;0.00;;;;;15.57;62.64;100156.56;5137978;27;8825;-61
2022/07/27 03:29:19;;;;;;;;;0.00;0.00;;;;;15.53;62.76;100157.84;5137254;27;8975;-61
2022/07/27 03:31:47;;;;;;;;;0.50;0.50;;;;;15.47;62.64;100150.41;5138122;27;8964;-63
2022/07/27 03:34:14;;;;;;;;;0.50;0.00;;;;;15.42;63.14;100156.22;5123932;27;8962;-62
2022/07/27 03:36:43;;;;;;;;;0.00;0.00;;;;;15.37;62.70;100160.31;5116319;28;8855;-61
2022/07/27 03:39:11;;;;;;;;;0.00;0.00;;;;;15.28;63.45;100153.13;5116595;28;8973;-62
2022/07/27 03:41:40;;;;;;;;;0.00;0.00;;;;;15.21;63.29;100162.75;5116650;28;8986;-61
2022/07/27 03:44:08;;;;;;;;;0.00;0.00;;;;;15.15;63.21;100155.25;5116517;28;8963;-66
2022/07/27 03:46:36;;;;;;;;;0.00;0.00;;;;;15.09;63.29;100156.69;5116839;28;8819;-61
2022/07/27 03:49:03;;;;;;;;;0.00;0.00;;;;;15.05;63.55;100159.81;5117567;28;8942;-62
2022/07/27 03:51:41;;;;;;;;;0.00;0.00;;;;;14.99;63.54;100166.63;5116762;28;8823;-61
2022/07/27 03:54:09;;;;;;;;;0.00;0.00;;;;;14.96;63.87;100163.38;5116493;28;8907;-62
2022/07/27 03:56:37;;;;;;;;;1.00;0.50;;;;;14.93;63.70;100156.47;5116687;28;8852;-62
2022/07/27 03:59:05;;;;;;;;;0.50;0.00;;;;;14.91;63.55;100165.63;5116437;28;8852;-62
2022/07/27 04:01:33;;;;;;;;;1.00;1.00;;;;;14.90;63.54;100158.59;5116765;28;8828;-61
2022/07/27 04:04:00;;;;;;;;;0.00;0.00;;;;;14.87;63.51;100156.19;5130403;27;9622;-61
2022/07/27 04:06:28;;;;;;;;;0.00;0.00;;;;;14.83;64.29;100154.78;5137399;27;9510;-61
2022/07/27 04:08:56;;;;;;;;;0.00;0.00;;;;;14.79;63.24;100166.81;5137354;27;8851;-61
2022/07/27 04:11:35;;;;;;;;;0.00;0.00;;;;;14.76;64.48;100164.38;5138061;27;8972;-61
2022/07/27 04:14:10;;;;;;;;;0.00;0.00;;;;;14.74;63.35;100169.06;5137162;27;9491;-61
2022/07/27 04:16:40;;;;;;;;;0.00;0.00;;;;;14.74;63.62;100169.06;5137099;27;8818;-61
2022/07/27 04:19:07;;;;;;;;;1.00;1.00;;;;;14.77;63.22;100174.13;5136762;27;8849;-61
2022/07/27 04:21:36;;;;;;;;;0.00;0.00;;;;;14.82;63.92;100177.22;5137109;27;8814;-61
2022/07/27 04:24:04;;;;;;;;;1.00;1.00;;;;;14.88;63.60;100174.81;5137161;27;8838;-61
2022/07/27 04:26:32;;;;;;;;;1.00;1.00;;;;;14.96;63.34;100168.75;5137159;27;8951;-61
2022/07/27 04:28:59;;;;;;;;;0.00;0.00;;;;;15.02;62.90;100168.16;5135815;27;8841;-61
2022/07/27 04:31:27;;;;;;;;;0.25;0.00;;;;;15.07;62.67;100173.94;5137229;27;8834;-60
2022/07/27 04:33:55;;;;;;;;;0.00;0.00;;;;;15.12;62.99;100167.16;5123790;28;8909;-62
2022/07/27 04:36:22;;;;;;;;;1.00;1.00;;;;;15.14;62.75;100170.53;5115233;28;8875;-61
2022/07/27 04:38:51;;;;;;;;;3.00;3.00;;;;;15.15;62.67;100169.53;5115297;28;8962;-62
2022/07/27 04:41:18;;;;;;;;;0.50;0.50;;;;;15.17;62.57;100166.72;5115264;28;8844;-61
2022/07/27 04:43:46;;;;;;;;;0.75;0.75;;;;;15.20;62.18;100175.31;5116395;28;8831;-62
2022/07/27 04:46:14;;;;;;;;;0.50;0.50;;;;;15.24;62.94;100170.53;5117216;28;8842;-61
2022/07/27 04:48:42;;;;;;;;;1.00;1.00;;;;;15.28;62.20;100171.91;5119551;28;8820;-61
2022/07/27 04:51:16;;;;;;;;;1.00;1.00;;;;;15.35;62.71;100179.25;5119617;28;8828;-61
2022/07/27 04:53:44;;;;;;;;;1.50;1.50;;;;;15.40;61.99;100186.88;5119932;28;8824;-61
2022/07/27 04:56:25;;;;;;;;;0.00;0.00;;;;;15.46;62.17;100187.13;5119370;28;8897;-66
2022/07/27 04:58:52;;;;;;;;;1.00;1.00;;;;;15.53;61.45;100180.19;5117975;28;8916;-60
2022/07/27 05:01:21;;;;;;;;;0.75;0.75;;;;;15.60;62.03;100180.41;5117265;28;8858;-62
2022/07/27 05:03:49;;;;;;;;;1.00;1.00;;;;;15.69;61.79;100179.56;5130956;27;8948;-62
2022/07/27 05:06:17;;;;;;;;;0.75;0.50;;;;;15.75;61.82;100187.00;5138361;27;8960;-64
2022/07/27 05:08:45;;;;;;;;;2.00;1.00;;;;;15.80;61.02;100184.72;5138829;27;8822;-61
2022/07/27 05:11:13;;;;;;;;;1.50;1.25;;;;;15.85;61.37;100195.88;5139069;27;8872;-67
2022/07/27 05:13:40;;;;;;;;;1.00;1.00;;;;;15.91;61.28;100196.09;5139545;27;8822;-62
2022/07/27 05:16:09;;;;;;;;;2.50;1.00;;;;;15.99;61.15;100201.56;5140115;27;8853;-61
2022/07/27 05:18:37;;;;;;;;;1.00;1.00;;;;;16.08;60.62;100199.84;5138826;27;8833;-61
2022/07/27 05:21:05;;;;;;;;;1.00;1.00;;;;;16.15;61.04;100200.94;5138717;27;8856;-61
2022/07/27 05:23:33;;;;;;;;;2.00;2.00;;;;;16.25;60.52;100197.19;5138755;27;8991;-61
2022/07/27 05:26:00;;;;;;;;;3.00;3.00;;;;;16.35;60.31;100198.78;5138223;27;8830;-61
2022/07/27 05:28:28;;;;;;;;;3.00;3.00;;;;;16.45;60.19;100198.75;5138817;27;9011;-61
2022/07/27 05:30:56;;;;;;;;;4.00;3.50;;;;;16.53;59.98;100202.38;5138597;27;8858;-64
2022/07/27 05:33:24;;;;;;;;;2.50;2.50;;;;;16.65;60.13;100198.44;5136608;27;8810;-61
2022/07/27 05:35:51;;;;;;;;;7.00;6.00;;;;;16.72;59.89;100202.22;5139145;27;8830;-61
2022/07/27 05:38:20;;;;;;;;;3.50;3.50;;;;;16.76;59.67;100205.44;5139082;27;8826;-62
2022/07/27 05:40:47;;;;;;;;;3.00;3.00;;;;;16.82;59.57;100204.81;5139211;27;8837;-61
2022/07/27 05:43:15;;;;;;;;;4.00;4.00;;;;;16.90;59.52;100205.75;5139000;27;8852;-61
2022/07/27 05:45:43;;;;;;;;;4.00;3.80;;;;;17.00;59.36;100201.09;5138553;27;8818;-61
2022/07/27 05:48:11;;;;;;;;;1.80;1.80;;;;;17.11;59.60;100206.25;5138382;27;8852;-61
2022/07/27 05:50:39;;;;;;;;;2.20;1.80;;;;;17.13;59.39;100209.63;5138737;27;8968;-61
2022/07/27 05:53:07;;;;;;;;;3.00;3.00;;;;;17.17;59.35;100208.28;5137314;27;8872;-62
2022/07/27 05:55:35;;;;;;;;;3.00;3.00;;;;;17.26;58.78;100214.59;5137560;27;8822;-61
2022/07/27 05:58:03;;;;;;;;;1.80;1.80;;;;;17.34;59.06;100220.03;5136591;27;8829;-62
2022/07/27 06:00:31;;;;;;;;;1.40;1.40;;;;;17.40;59.01;100225.66;5138028;27;8854;-62
2022/07/27 06:02:59;;;;;;;;;1.00;1.00;;;;;17.49;58.88;100223.88;5125913;27;8890;-65
2022/07/27 06:05:27;;;;;;;;;1.00;1.00;;;;;17.60;58.36;100224.44;5116981;28;8882;-61
2022/07/27 06:08:05;;;;;;;;;0.00;0.00;;;;;17.73;58.51;100221.31;5117529;28;8950;-62
2022/07/27 06:10:32;;;;;;;;;0.80;0.80;;;;;17.86;58.02;100217.19;5118254;28;8828;-61
2022/07/27 06:13:00;;;;;;;;;0.00;0.00;;;;;18.00;58.01;100213.84;5117903;28;8824;-65
2022/07/27 06:15:28;;;;;;;;;0.00;0.00;;;;;18.11;57.55;100218.09;5116763;28;8850;-62
2022/07/27 06:17:56;;;;;;;;;1.00;1.00;;;;;18.20;57.75;100220.69;5117337;28;8908;-61
2022/07/27 06:20:23;;;;;;;;;2.60;2.60;;;;;18.28;57.40;100222.56;5118029;28;8971;-62
2022/07/27 06:22:51;;;;;;;;;0.60;0.00;;;;;18.34;57.58;100225.47;5118559;28;8836;-61
2022/07/27 06:25:19;;;;;;;;;0.00;0.00;;;;;18.40;57.35;100235.63;5118203;28;9006;-61
2022/07/27 06:27:46;;;;;;;;;1.40;0.40;;;;;18.44;57.17;100223.47;5116948;28;8912;-61
2022/07/27 06:30:14;;;;;;;;;0.60;0.00;;;;;18.45;57.58;100229.72;5117328;28;8875;-61
2022/07/27 06:32:42;;;;;;;;;0.00;0.00;;;;;18.43;57.23;100232.56;5124567;27;8842;-62
2022/07/27 06:35:10;;;;;;;;;0.00;0.00;;;;;18.41;57.40;100234.59;5137803;27;8826;-61
2022/07/27 06:37:42;;;;;;;;;0.00;0.00;;;;;18.48;57.16;100235.63;5138280;27;8864;-63
2022/07/27 06:40:11;;;;;;;;;0.00;0.00;;;;;18.59;56.88;100237.19;5137833;27;8845;-62
2022/07/27 06:42:38;;;;;;;;;1.00;1.00;;;;;18.74;57.19;100236.34;5137576;27;8829;-61
2022/07/27 06:45:06;;;;;;;;;0.00;0.00;;;;;18.88;56.67;100242.97;5137705;27;8930;-62
2022/07/27 06:47:34;;;;;;;;;0.80;0.00;;;;;18.84;56.63;100242.44;5138038;27;8825;-61
2022/07/27 06:50:15;;;;;;;;;0.00;0.00;;;;;18.72;56.80;100232.97;5137056;27;8830;-62
2022/07/27 06:52:44;;;;;;;;;1.00;1.00;;;;;18.56;57.61;100238.34;5137177;27;8821;-61
2022/07/27 06:55:11;;;;;;;;;0.00;0.00;;;;;18.45;57.47;100244.03;5137663;27;8833;-61
2022/07/27 06:57:39;;;;;;;;;1.00;0.00;;;;;18.52;57.77;100234.28;5137850;27;8829;-63
2022/07/27 07:00:07;;;;;;;;;0.80;0.20;;;;;18.49;57.57;100241.84;5138124;27;8984;-61
2022/07/27 07:02:34;;;;;;;;;2.20;0.60;;;;;18.49;57.29;100240.00;5128009;27;8824;-62
2022/07/27 07:05:02;;;;;;;;;0.20;0.20;;;;;18.60;57.42;100244.25;5117033;28;8848;-61
2022/07/27 07:07:31;;;;;;;;;0.00;0.00;;;;;18.60;57.25;100247.78;5115646;28;8959;-62
2022/07/27 07:09:59;;;;;;;;;0.00;0.00;;;;;18.51;57.67;100246.06;5115273;28;8902;-61
2022/07/27 07:12:27;;;;;;;;;0.40;0.40;;;;;18.41;57.83;100256.19;5116155;28;9565;-61
2022/07/27 07:14:55;;;;;;;;;0.00;0.00;;;;;18.35;57.87;100246.03;5116443;28;8858;-62
2022/07/27 07:17:23;;;;;;;;;1.00;0.40;;;;;18.44;57.26;100234.25;5116422;28;8875;-61
2022/07/27 07:19:51;;;;;;;;;0.00;0.00;;;;;18.55;57.33;100244.75;5116441;28;8970;-62
2022/07/27 07:22:19;;;;;;;;;0.80;0.00;;;;;18.62;57.25;100248.47;5116174;28;8838;-61
2022/07/27 07:24:47;;;;;;;;;0.00;0.00;;;;;18.76;56.76;100244.28;5098172;28;8831;-62
2022/07/27 07:27:14;;;;;;;;;0.00;0.00;;;;;19.04;56.49;100240.25;5115708;28;8966;-62
2022/07/27 07:29:42;;;;;;;;;0.00;0.00;;;;;19.33;55.63;100241.44;5115751;28;8843;-62
2022/07/27 07:32:10;;;;;;;;;0.00;0.00;;;;;19.64;54.94;100239.72;5113636;27;9000;-61
2022/07/27 07:34:40;;;;;;;;;0.00;0.00;;;;;19.90;54.52;100239.47;5095663;28;8849;-62
2022/07/27 07:37:09;;;;;;;;;0.00;0.00;;;;;20.13;54.46;100244.00;5095768;28;8850;-62
2022/07/27 07:39:36;;;;;;;;;0.40;0.40;;;;;20.27;53.63;100239.69;5096084;28;8826;-62
2022/07/27 07:42:04;;;;;;;;;0.00;0.00;;;;;20.40;53.29;100240.81;5095457;28;8838;-61
2022/07/27 07:44:37;;;;;;;;;0.40;0.00;;;;;20.51;53.08;100231.44;5095461;28;8849;-61
2022/07/27 07:47:05;;;;;;;;;0.00;0.00;;;;;20.60;53.30;100236.66;5095235;28;8838;-61
2022/07/27 07:49:33;;;;;;;;;0.00;0.00;;;;;20.55;53.18;100233.63;5095194;28;8858;-62
2022/07/27 07:52:06;;;;;;;;;1.20;0.00;;;;;20.52;53.17;100239.41;5095207;28;8834;-61
2022/07/27 07:54:34;;;;;;;;;0.00;0.00;;;;;20.46;53.37;100244.69;5095943;28;8838;-61
2022/07/27 07:57:02;;;;;;;;;0.00;0.00;;;;;20.51;53.58;100236.84;5095574;28;8861;-61
2022/07/27 07:59:30;;;;;;;;;0.00;0.00;;;;;20.49;53.40;100239.72;5094680;28;8850;-61
2022/07/27 08:01:58;;;;;;;;;0.00;0.00;;;;;20.50;53.20;100241.44;5097802;28;8840;-61
2022/07/27 08:04:25;;;;;;;;;0.00;0.00;;;;;20.63;53.07;100238.16;5114765;28;8843;-62
2022/07/27 08:06:54;;;;;;;;;0.00;0.00;;;;;20.79;52.38;100239.72;5114100;28;8836;-62
2022/07/27 08:09:25;;;;;;;;;0.00;0.00;;;;;21.08;51.78;100239.03;5114233;28;8967;-62
2022/07/27 08:11:53;;;;;;;;;0.00;0.00;;;;;21.28;51.58;100237.50;5114747;28;8843;-61
2022/07/27 08:14:22;;;;;;;;;0.00;0.00;;;;;21.39;51.06;100232.50;5115812;28;8994;-62
2022/07/27 08:16:49;;;;;;;;;0.20;0.20;;;;;21.33;51.51;100238.63;5115310;28;8851;-62
2022/07/27 08:19:17;;;;;;;;;0.00;0.00;;;;;21.27;51.52;100238.53;5113659;28;8839;-62
2022/07/27 08:21:45;;;;;;;;;0.00;0.00;;;;;21.21;51.50;100242.81;5116652;28;8863;-61
2022/07/27 08:24:13;;;;;;;;;0.00;0.00;;;;;21.13;52.13;100239.34;5117813;28;8964;-61
2022/07/27 08:26:41;;;;;;;;;0.00;0.00;;;;;21.03;52.02;100244.16;5117884;28;9843;-63
2022/07/27 08:29:08;;;;;;;;;0.00;0.00;;;;;20.88;52.24;100245.13;5115815;28;8973;-62
2022/07/27 08:31:40;;;;;;;;;0.00;0.00;;;;;20.75;52.44;100242.97;5118138;28;8860;-63
2022/07/27 08:34:19;;;;;;;;;0.00;0.00;;;;;20.74;52.52;100244.81;5102136;28;8824;-61
2022/07/27 08:36:46;;;;;;;;;0.00;0.00;;;;;20.82;52.52;100244.75;5119374;28;8820;-61
2022/07/27 08:39:14;;;;;;;;;0.00;0.00;;;;;20.92;52.47;100242.72;5119716;28;8962;-61
2022/07/27 08:42:03;;;;;;;;;0.00;0.00;;;;;20.87;52.43;100241.59;5119324;28;8840;-61
2022/07/27 08:44:31;;;;;;;;;0.00;0.00;;;;;20.84;52.48;100250.00;5119203;28;8978;-62
2022/07/27 08:46:58;;;;;;;;;0.00;0.00;;;;;20.88;52.14;100248.69;5119335;28;8970;-62
2022/07/27 08:49:26;;;;;;;;;1.00;0.00;;;;;21.09;51.54;100246.13;5118932;28;8824;-61
2022/07/27 08:52:09;;;;;;;;;1.00;1.00;;;;;21.38;51.09;100238.09;5118210;28;8835;-61
2022/07/27 08:54:37;;;;;;;;;0.00;0.00;;;;;21.72;50.26;100233.88;5099041;28;8977;-62
2022/07/27 08:57:04;;;;;;;;;0.20;0.00;;;;;21.97;49.96;100239.88;5098880;28;8899;-62
2022/07/27 08:59:32;;;;;;;;;0.00;0.00;;;;;21.95;50.11;100236.50;5097939;28;8850;-61
2022/07/27 09:02:00;;;;;;;;;0.00;0.00;;;;;21.78;50.40;100237.72;5097410;28;9538;-63
2022/07/27 09:04:30;;;;;;;;;0.00;0.00;;;;;21.54;50.58;100237.91;5097845;28;8912;-62
2022/07/27 09:06:58;;;;;;;;;0.00;0.00;;;;;21.36;50.71;100243.72;5098740;28;8899;-62
2022/07/27 09:09:26;;;;;;;;;0.00;0.00;;;;;21.22;51.15;100247.22;5098532;28;8854;-62
2022/07/27 09:11:53;;;;;;;;;0.00;0.00;;;;;21.13;51.57;100248.31;5098482;28;8849;-61
2022/07/27 09:14:21;;;;;;;;;0.00;0.00;;;;;21.06;51.16;100244.66;5097355;28;8970;-62
2022/07/27 09:16:49;;;;;;;;;1.00;0.00;;;;;20.96;51.30;100249.44;5096493;28;8961;-61
2022/07/27 09:19:37;;;;;;;;;0.00;0.00;;;;;20.94;51.39;100251.50;5095838;28;8854;-61
2022/07/27 09:22:05;;;;;;;;;0.00;0.00;;;;;21.01;51.48;100246.19;5095658;28;8977;-62
2022/07/27 09:24:32;;;;;;;;;0.00;0.00;;;;;21.13;50.63;100255.59;5095726;28;8830;-61
2022/07/27 09:27:14;;;;;;;;;0.00;0.00;;;;;21.24;50.58;100247.88;5096901;28;8842;-61
2022/07/27 09:29:41;;;;;;;;;0.00;0.00;;;;;21.33;50.54;100240.53;5094947;28;8884;-61
2022/07/27 09:32:09;;;;;;;;;0.00;0.00;;;;;21.60;49.86;100253.47;5098165;28;8980;-61
2022/07/27 09:34:37;;;;;;;;;0.00;0.00;;;;;21.71;49.95;100255.75;5116317;28;8824;-62
2022/07/27 09:37:06;;;;;;;;;0.00;0.00;;;;;21.64;49.56;100258.31;5116869;28;8905;-62
2022/07/27 09:39:34;;;;;;;;;0.00;0.00;;;;;21.60;49.74;100256.16;5116433;28;8932;-62
2022/07/27 09:42:02;;;;;;;;;0.00;0.00;;;;;21.60;49.73;100250.75;5116819;28;9540;-62
2022/07/27 09:44:30;;;;;;;;;1.00;1.00;;;;;21.75;49.31;100249.78;5116966;28;8962;-61
2022/07/27 09:47:01;;;;;;;;;1.80;1.80;;;;;22.17;48.68;100246.41;5118061;28;9912;-61
2022/07/27 09:49:28;;;;;;;;;0.00;0.00;;;;;22.76;47.40;100251.56;5117179;28;8835;-64
2022/07/27 09:51:56;;;;;;;;;0.00;0.00;;;;;23.16;46.51;100240.06;5116977;28;8893;-62
2022/07/27 09:54:30;;;;;;;;;0.60;0.00;;;;;22.98;46.85;100252.44;5117972;27;9540;-63
2022/07/27 09:56:58;;;;;;;;;0.80;0.40;;;;;22.66;47.56;100256.47;5117093;28;8955;-63
2022/07/27 09:59:25;;;;;;;;;1.00;1.00;;;;;22.38;48.03;100255.44;5117553;28;8836;-62
2022/07/27 10:01:54;;;;;;;;;1.00;1.00;;;;;22.06;48.41;100260.44;5117501;28;8839;-62
2022/07/27 10:04:22;;;;;;;;;1.00;0.00;;;;;21.76;48.81;100265.03;5117063;28;8874;-62
2022/07/27 10:06:50;;;;;;;;;1.00;0.20;;;;;21.53;49.30;100264.22;5116864;28;9871;-65
2022/07/27 10:09:30;;;;;;;;;0.00;0.00;;;;;21.35;49.39;100265.56;5116701;28;8977;-63
2022/07/27 10:11:57;;;;;;;;;0.00;0.00;;;;;21.26;49.96;100261.25;5116644;28;8832;-62
2022/07/27 10:14:25;;;;;;;;;0.20;0.20;;;;;21.19;49.71;100263.81;5116859;28;8970;-62
2022/07/27 10:16:53;;;;;;;;;1.00;1.00;;;;;21.18;49.67;100269.44;5116373;28;8839;-62
2022/07/27 10:19:21;;;;;;;;;0.00;0.00;;;;;21.19;49.81;100273.84;5117814;28;8851;-62
2022/07/27 10:21:49;;;;;;;;;1.20;0.60;;;;;21.29;49.34;100271.72;5117905;27;8819;-62
2022/07/27 10:24:16;;;;;;;;;0.00;0.00;;;;;21.41;49.55;100278.38;5137969;27;8837;-61
2022/07/27 10:26:44;;;;;;;;;0.80;0.80;;;;;21.52;48.88;100272.50;5137696;27;8935;-62
2022/07/27 10:29:14;;;;;;;;;0.00;0.00;;;;;21.67;48.99;100266.13;5137654;27;8818;-62
2022/07/27 10:31:41;;;;;;;;;0.00;0.00;;;;;21.93;48.33;100263.81;5136667;27;8836;-61
2022/07/27 10:34:09;;;;;;;;;0.00;0.00;;;;;22.20;48.03;100270.44;5137524;27;8841;-62
2022/07/27 10:36:39;;;;;;;;;0.00;0.00;;;;;22.69;47.08;100272.38;5136946;27;9498;-61
2022/07/27 10:39:06;;;;;;;;;0.00;0.00;;;;;23.82;44.85;100257.78;5137029;27;8833;-62
2022/07/27 10:41:34;;;;;;;;;0.00;0.00;;;;;25.10;42.87;100246.88;5137520;27;8825;-62
2022/07/27 10:44:02;;;;;;;;;0.20;0.20;;;;;25.92;41.73;100241.66;5136751;27;8825;-63
2022/07/27 10:46:30;;;;;;;;;0.00;0.00;;;;;26.89;40.67;100235.00;5136849;27;8879;-63
2022/07/27 10:48:58;;;;;;;;;0.00;0.00;;;;;27.66;38.80;100237.34;5137554;27;8902;-62
2022/07/27 10:51:27;;;;;;;;;0.00;0.00;;;;;28.46;38.70;100232.53;5136600;27;8826;-62
2022/07/27 10:53:54;;;;;;;;;1.20;1.00;;;;;29.00;37.73;100232.47;5117003;27;8858;-62
2022/07/27 10:56:39;;;;;;;;;0.00;0.00;;;;;29.07;37.78;100222.22;5115624;28;8874;-65
2022/07/27 10:59:07;;;;;;;;;1.00;0.40;;;;;29.00;37.74;100232.47;5116128;28;8844;-62
2022/07/27 11:01:34;;;;;;;;;1.00;1.00;;;;;29.54;37.31;100223.16;5115682;28;8920;-62
2022/07/27 11:04:02;;;;;;;;;1.20;1.00;;;;;30.10;35.51;100232.50;5115807;28;8851;-62
2022/07/27 11:06:30;;;;;;;;;0.00;0.00;;;;;30.54;35.51;100231.00;5116519;28;8954;-63
2022/07/27 11:09:08;;;;;;;;;0.60;0.60;;;;;30.38;35.97;100238.06;5115754;28;8871;-63
2022/07/27 11:11:56;;;;;;;;;0.00;0.00;;;;;29.78;37.07;100236.69;5115893;28;8847;-63
2022/07/27 11:14:24;;;;;;;;;1.00;1.00;;;;;30.00;37.03;100239.66;5115909;28;8851;-62
2022/07/27 11:16:57;;;;;;;;;0.00;0.00;;;;;29.91;36.45;100235.59;5115678;28;8896;-62
2022/07/27 11:19:45;;;;;;;;;1.00;0.00;;;;;29.43;37.38;100235.78;5115625;28;8843;-62
2022/07/27 11:22:13;;;;;;;;;0.60;0.60;;;;;29.22;37.58;100246.47;5122465;27;8809;-63
2022/07/27 11:24:55;;;;;;;;;0.60;0.60;;;;;29.16;37.34;100247.41;5137243;27;8825;-62
2022/07/27 11:27:22;;;;;;;;;1.00;1.00;;;;;29.08;37.46;100240.34;5136953;27;8956;-62
2022/07/27 11:29:51;;;;;;;;;0.00;0.00;;;;;28.88;37.94;100248.00;5136958;27;8869;-62
2022/07/27 11:32:19;;;;;;;;;0.60;0.60;;;;;28.70;37.95;100242.56;5136876;27;8868;-62
2022/07/27 11:34:47;;;;;;;;;0.80;0.80;;;;;29.29;36.88;100231.56;5136471;27;8918;-62
2022/07/27 11:37:18;;;;;;;;;0.00;0.00;;;;;30.17;35.81;100226.91;5136510;27;8839;-62
2022/07/27 11:39:45;;;;;;;;;0.00;0.00;;;;;30.83;34.83;100228.84;5136095;27;8830;-62
2022/07/27 11:42:33;;;;;;;;;1.00;1.00;;;;;30.74;34.32;100226.75;5134902;27;8830;-62